LNG Imo — ZCDT6 — position and weather

sailwx.info

Track history (hours):
 
Tides and Currents Weather Stations Pressure Air Temp Water Temp Dewpoint Dewpoint Depression Visibility Wind Speed Wind Dir Waves Ship Positions

LNG Imo

Last reported at 2016-Dec-01 01:33 UTC. Time now 2016-Dec-06 18:02 UTC.
Position N 08°04' W 014°52'.

Length 288 m; draft 9.5 m.

Type: Ship (hazmat cat D). MMSI: 310565000.

Date/timePositionNaut miles runAvg speedWind from/ knotsBaromVisibWave heightAir tempDewpointWater temp
2016-Dec-01 01:33N 08°04' W 014°52'1818.0
2016-Dec-01 00:33N 08°16' W 015°06'1918.2
2016-Nov-30 23:30N 08°28' W 015°21'9218.4
2016-Nov-30 18:28N 09°27' W 016°33'7318.2
2016-Nov-30 14:29N 10°13' W 017°30'  
2016-Nov-28 03:19N 27°31' W 015°17'1519.4
2016-Nov-28 02:33N 27°44' W 015°10'1919.5
2016-Nov-28 01:33N 28°03' W 015°02'1918.9
2016-Nov-28 00:33N 28°20' W 014°55'1919.0
2016-Nov-27 23:33N 28°39' W 014°49'  
2016-Nov-25 04:33N 46°48' W 003°09'1919.5
2016-Nov-25 03:33N 46°58' W 002°45'1717.2
2016-Nov-25 02:33N 47°06' W 002°23'1111.2
2016-Nov-25 01:33N 47°15' W 002°13'4 3.7
2016-Nov-25 00:22N 47°18' W 002°08'0 0.0
2016-Nov-24 23:31N 47°18' W 002°08'0 0.0
2016-Nov-24 22:22N 47°18' W 002°08'0 0.0
2016-Nov-24 21:16N 47°18' W 002°08'0 0.0
2016-Nov-24 20:31N 47°18' W 002°08'0 0.0
2016-Nov-24 19:25N 47°18' W 002°08'0 0.0
2016-Nov-24 18:31N 47°18' W 002°08'0 0.0
2016-Nov-24 17:28N 47°18' W 002°08'0 0.0
2016-Nov-24 16:28N 47°18' W 002°08'0 0.0
2016-Nov-24 15:10N 47°18' W 002°08'0 0.0
2016-Nov-24 13:22N 47°18' W 002°08'0 0.0
2016-Nov-24 11:28N 47°18' W 002°08'0 0.0
2016-Nov-24 10:19N 47°18' W 002°08'0 0.0
2016-Nov-24 09:13N 47°18' W 002°08'0 0.0
2016-Nov-24 08:28N 47°18' W 002°08'0 0.0
2016-Nov-24 05:10N 47°18' W 002°08'0 0.0
2016-Nov-24 04:10N 47°18' W 002°08'0 0.0
2016-Nov-24 00:19N 47°18' W 002°08'1 0.8
2016-Nov-23 23:32N 47°18' W 002°09'8 8.4
2016-Nov-23 22:33N 47°12' W 002°17'8 7.6
2016-Nov-23 21:33N 47°06' W 002°24'11 8.7
2016-Nov-23 20:18N 47°00' W 002°38'810.7
2016-Nov-23 19:33N 46°56' W 002°48'1110.8
2016-Nov-23 18:33N 46°49' W 003°00'6610.5
2016-Nov-23 12:14N 46°12' W 004°19'  
Track history (hours):
 
Tides and Currents Weather Stations Pressure Air Temp Water Temp Dewpoint Dewpoint Depression Visibility Wind Speed Wind Dir Waves Ship Positions

LNG Imo

Last reported at 2016-Dec-01 01:33 UTC. Time now 2016-Dec-06 18:02 UTC.
Position N 08°04' W 014°52'.

Length 288 m; draft 9.5 m.

Type: Ship (hazmat cat D). MMSI: 310565000.

Date/timePositionNaut miles runAvg speedWind from/ knotsBaromVisibWave heightAir tempDewpointWater temp
2016-Dec-01 01:33N 08°04' W 014°52'1818.0
2016-Dec-01 00:33N 08°16' W 015°06'1918.2
2016-Nov-30 23:30N 08°28' W 015°21'9218.4
2016-Nov-30 18:28N 09°27' W 016°33'7318.2
2016-Nov-30 14:29N 10°13' W 017°30'  
2016-Nov-28 03:19N 27°31' W 015°17'1519.4
2016-Nov-28 02:33N 27°44' W 015°10'1919.5
2016-Nov-28 01:33N 28°03' W 015°02'1918.9
2016-Nov-28 00:33N 28°20' W 014°55'1919.0
2016-Nov-27 23:33N 28°39' W 014°49'  
2016-Nov-25 04:33N 46°48' W 003°09'1919.5
2016-Nov-25 03:33N 46°58' W 002°45'1717.2
2016-Nov-25 02:33N 47°06' W 002°23'1111.2
2016-Nov-25 01:33N 47°15' W 002°13'4 3.7
2016-Nov-25 00:22N 47°18' W 002°08'0 0.0
2016-Nov-24 23:31N 47°18' W 002°08'0 0.0
2016-Nov-24 22:22N 47°18' W 002°08'0 0.0
2016-Nov-24 21:16N 47°18' W 002°08'0 0.0
2016-Nov-24 20:31N 47°18' W 002°08'0 0.0
2016-Nov-24 19:25N 47°18' W 002°08'0 0.0
2016-Nov-24 18:31N 47°18' W 002°08'0 0.0
2016-Nov-24 17:28N 47°18' W 002°08'0 0.0
2016-Nov-24 16:28N 47°18' W 002°08'0 0.0
2016-Nov-24 15:10N 47°18' W 002°08'0 0.0
2016-Nov-24 13:22N 47°18' W 002°08'0 0.0
2016-Nov-24 11:28N 47°18' W 002°08'0 0.0
2016-Nov-24 10:19N 47°18' W 002°08'0 0.0
2016-Nov-24 09:13N 47°18' W 002°08'0 0.0
2016-Nov-24 08:28N 47°18' W 002°08'0 0.0
2016-Nov-24 05:10N 47°18' W 002°08'0 0.0
2016-Nov-24 04:10N 47°18' W 002°08'0 0.0
2016-Nov-24 00:19N 47°18' W 002°08'1 0.8
2016-Nov-23 23:32N 47°18' W 002°09'8 8.4
2016-Nov-23 22:33N 47°12' W 002°17'8 7.6
2016-Nov-23 21:33N 47°06' W 002°24'11 8.7
2016-Nov-23 20:18N 47°00' W 002°38'810.7
2016-Nov-23 19:33N 46°56' W 002°48'1110.8
2016-Nov-23 18:33N 46°49' W 003°00'6610.5
2016-Nov-23 12:14N 46°12' W 004°19'  

Dump ship's entire track history